Time;durP1;ratioP1;P1;durP2;ratioP2;P2;SDS_P1;SDS_P2;PMS_P1;PMS_P2;Temp;Humidity;BMP_temperature;BMP_pressure;BME280_temperature;BME280_humidity;BME280_pressure;Samples;Min_cycle;Max_cycle;Signal;HPM_P1;HPM_P2
2021/10/09 00:00:15;;;;;;;10.95;4.80;;;9.10;99.90;;;;;;5068744;28;20152;-72
2021/10/09 00:02:41;;;;;;;11.40;5.78;;;9.20;99.90;;;;;;5069514;28;20584;-72
2021/10/09 00:05:08;;;;;;;9.18;5.57;;;9.40;99.90;;;;;;5068789;28;20203;-72
2021/10/09 00:07:34;;;;;;;7.93;5.20;;;9.40;99.90;;;;;;5068839;28;20180;-71
2021/10/09 00:10:04;;;;;;;10.05;4.78;;;9.50;99.90;;;;;;5068761;28;20243;-72
2021/10/09 00:12:30;;;;;;;6.15;4.68;;;9.50;99.90;;;;;;5067102;28;20212;-72
2021/10/09 00:14:56;;;;;;;9.15;4.47;;;9.50;99.90;;;;;;5067271;28;20192;-71
2021/10/09 00:17:24;;;;;;;6.22;4.72;;;9.50;99.90;;;;;;5067182;28;20165;-71
2021/10/09 00:19:51;;;;;;;14.30;5.15;;;9.50;99.90;;;;;;5068652;28;20237;-71
2021/10/09 00:22:18;;;;;;;9.88;5.50;;;9.50;99.90;;;;;;5067180;28;20176;-72
2021/10/09 00:24:43;;;;;;;6.53;4.60;;;9.40;99.90;;;;;;5066979;28;20211;-72
2021/10/09 00:27:10;;;;;;;13.65;4.85;;;9.40;99.90;;;;;;5068354;28;20165;-72
2021/10/09 00:29:36;;;;;;;12.10;4.85;;;9.30;99.90;;;;;;5068463;28;20181;-71
2021/10/09 00:32:02;;;;;;;7.35;4.53;;;9.30;99.90;;;;;;5068306;28;20200;-71
2021/10/09 00:34:28;;;;;;;5.65;4.15;;;9.40;99.90;;;;;;5067850;28;20235;-72
2021/10/09 00:36:54;;;;;;;9.95;4.40;;;9.40;99.90;;;;;;5048195;28;20161;-71
2021/10/09 00:39:20;;;;;;;10.50;4.72;;;9.30;99.90;;;;;;5046742;28;20572;-71
2021/10/09 00:41:45;;;;;;;6.53;4.38;;;9.30;99.90;;;;;;5046860;28;20192;-72
2021/10/09 00:44:14;;;;;;;7.25;4.30;;;9.30;99.90;;;;;;5047725;28;20250;-71
2021/10/09 00:46:42;;;;;;;7.78;4.05;;;9.30;99.90;;;;;;5048062;28;20161;-71
2021/10/09 00:49:15;;;;;;;7.32;4.78;;;9.30;99.90;;;;;;5048021;28;20153;-72
2021/10/09 00:51:42;;;;;;;9.32;5.47;;;9.30;99.90;;;;;;5041669;28;20243;-72
2021/10/09 00:54:11;;;;;;;7.70;4.80;;;9.20;99.90;;;;;;5038795;28;20233;-72
2021/10/09 00:56:40;;;;;;;5.45;3.88;;;9.10;99.90;;;;;;5047985;28;20173;-72
2021/10/09 00:59:08;;;;;;;7.93;5.25;;;9.20;99.90;;;;;;5047999;28;20165;-72
2021/10/09 01:01:35;;;;;;;7.28;5.38;;;9.20;99.90;;;;;;5037635;28;20187;-71
2021/10/09 01:04:04;;;;;;;9.07;4.95;;;9.10;99.90;;;;;;5050232;28;20261;-72
2021/10/09 01:06:30;;;;;;;9.68;5.07;;;9.10;99.90;;;;;;5010121;28;20197;-72
2021/10/09 01:08:56;;;;;;;7.57;5.20;;;9.10;99.90;;;;;;5027940;28;20166;-71
2021/10/09 01:11:22;;;;;;;7.68;4.30;;;9.00;99.90;;;;;;5010267;28;20170;-71
2021/10/09 01:13:48;;;;;;;6.43;3.97;;;9.00;99.90;;;;;;5027663;28;20209;-71
2021/10/09 01:16:23;;;;;;;6.03;4.70;;;9.00;99.90;;;;;;5027941;28;20193;-71
2021/10/09 01:18:54;;;;;;;7.70;5.18;;;8.90;99.90;;;;;;5010065;28;20197;-71
2021/10/09 01:21:22;;;;;;;6.65;4.85;;;8.80;99.90;;;;;;5027835;28;20178;-71
2021/10/09 01:23:49;;;;;;;5.43;3.90;;;8.80;99.90;;;;;;5027713;28;20208;-71
2021/10/09 01:26:16;;;;;;;7.68;4.85;;;8.80;99.90;;;;;;5027740;28;20253;-71
2021/10/09 01:28:47;;;;;;;8.95;4.97;;;8.70;99.90;;;;;;5027789;28;20158;-71
2021/10/09 01:31:13;;;;;;;9.45;4.97;;;8.60;99.90;;;;;;5010035;28;20170;-70
2021/10/09 01:33:41;;;;;;;7.97;5.70;;;8.60;99.90;;;;;;5027579;28;20255;-71
2021/10/09 01:36:07;;;;;;;8.23;4.82;;;8.60;99.90;;;;;;5009925;28;20158;-71
2021/10/09 01:38:35;;;;;;;9.48;5.05;;;8.60;99.90;;;;;;5009828;28;20249;-71
2021/10/09 01:41:02;;;;;;;10.05;5.07;;;8.50;99.90;;;;;;5027544;28;20635;-71
2021/10/09 01:43:28;;;;;;;7.68;4.57;;;8.40;99.90;;;;;;5027575;28;20239;-71
2021/10/09 01:45:54;;;;;;;8.82;5.55;;;8.40;99.90;;;;;;5027532;28;20186;-71
2021/10/09 01:48:30;;;;;;;7.63;5.35;;;8.40;99.90;;;;;;5027565;28;20170;-71
2021/10/09 01:50:56;;;;;;;8.30;5.20;;;8.40;99.90;;;;;;5027461;28;20590;-71
2021/10/09 01:53:23;;;;;;;8.23;4.95;;;8.30;99.90;;;;;;5033545;28;20236;-71
2021/10/09 01:55:48;;;;;;;6.72;3.90;;;8.30;99.90;;;;;;5068681;28;20161;-71
2021/10/09 01:58:14;;;;;;;9.07;4.18;;;8.30;99.90;;;;;;5070782;28;20579;-71
2021/10/09 02:00:40;;;;;;;7.43;4.22;;;8.30;99.90;;;;;;5070888;28;20153;-71
2021/10/09 02:03:07;;;;;;;6.97;4.50;;;8.20;99.90;;;;;;5090747;28;20194;-71
2021/10/09 02:05:35;;;;;;;8.90;4.50;;;8.20;99.90;;;;;;5090902;28;20168;-71
2021/10/09 02:08:02;;;;;;;5.80;4.20;;;8.10;99.90;;;;;;5072996;28;20210;-71
2021/10/09 02:10:29;;;;;;;5.35;4.38;;;8.10;99.90;;;;;;5072719;28;20172;-70
2021/10/09 02:12:57;;;;;;;7.43;4.50;;;8.10;99.90;;;;;;5072636;28;20405;-71
2021/10/09 02:15:31;;;;;;;5.72;4.30;;;8.00;99.90;;;;;;5072435;28;20230;-71
2021/10/09 02:18:21;;;;;;;4.82;3.95;;;7.90;99.90;;;;;;5090563;28;20238;-70
2021/10/09 02:26:12;;;;;;;6.15;4.60;;;7.90;99.90;;;;;;5090705;28;20166;-71
2021/10/09 02:28:38;;;;;;;11.25;4.30;;;7.90;99.90;;;;;;5090343;28;20160;-72
2021/10/09 02:31:04;;;;;;;6.60;4.38;;;7.70;99.90;;;;;;5072043;28;20176;-72
2021/10/09 02:33:29;;;;;;;9.45;4.75;;;7.70;99.90;;;;;;5090265;28;20203;-71
2021/10/09 02:35:55;;;;;;;8.65;3.90;;;7.60;99.90;;;;;;5090040;28;20201;-71
2021/10/09 02:38:21;;;;;;;7.00;3.90;;;7.60;99.90;;;;;;5090197;28;20183;-72
2021/10/09 02:40:47;;;;;;;6.13;4.10;;;7.60;99.90;;;;;;5090281;28;20165;-72
2021/10/09 02:43:14;;;;;;;5.13;3.85;;;7.60;99.90;;;;;;5090147;28;20160;-72
2021/10/09 02:45:41;;;;;;;6.38;4.18;;;7.60;99.90;;;;;;5072231;28;20187;-71
2021/10/09 02:48:08;;;;;;;9.85;3.85;;;7.50;99.90;;;;;;5090189;28;20178;-71
2021/10/09 02:50:36;;;;;;;8.98;4.70;;;7.50;99.90;;;;;;5090104;28;20206;-71
2021/10/09 02:53:02;;;;;;;12.73;4.75;;;7.50;99.90;;;;;;5071057;28;20227;-74
2021/10/09 02:55:28;;;;;;;6.22;4.35;;;7.40;99.90;;;;;;5049872;28;20169;-72
2021/10/09 02:57:54;;;;;;;6.78;4.45;;;7.40;99.90;;;;;;5049827;28;20221;-73
2021/10/09 03:00:21;;;;;;;6.90;4.20;;;7.40;99.90;;;;;;5049861;28;20165;-71
2021/10/09 03:02:47;;;;;;;14.23;5.05;;;7.40;99.90;;;;;;5049739;28;20206;-72
2021/10/09 03:05:14;;;;;;;6.88;4.28;;;7.40;99.90;;;;;;5069820;28;20192;-72
2021/10/09 03:07:40;;;;;;;9.52;4.55;;;7.30;99.90;;;;;;5069279;28;20165;-71
2021/10/09 03:10:08;;;;;;;5.30;4.07;;;7.30;99.90;;;;;;5051693;28;20199;-72
2021/10/09 03:12:35;;;;;;;8.45;4.60;;;7.20;99.90;;;;;;5069702;28;20261;-71
2021/10/09 03:15:00;;;;;;;7.88;5.53;;;7.20;99.90;;;;;;5069487;28;20189;-71
2021/10/09 03:17:27;;;;;;;10.10;5.05;;;7.10;99.90;;;;;;5069497;28;20165;-71
2021/10/09 03:19:53;;;;;;;6.47;4.57;;;7.10;99.90;;;;;;5051904;28;20168;-72
2021/10/09 03:22:19;;;;;;;7.20;4.53;;;7.20;99.90;;;;;;5069392;28;20167;-73
2021/10/09 03:24:45;;;;;;;9.95;5.28;;;7.20;99.90;;;;;;5069426;28;20197;-72
2021/10/09 03:27:11;;;;;;;6.80;4.10;;;7.10;99.90;;;;;;5069334;28;20173;-75
2021/10/09 03:29:37;;;;;;;5.70;4.40;;;7.10;99.90;;;;;;5051125;28;20240;-73
2021/10/09 03:32:03;;;;;;;9.38;4.55;;;7.10;99.90;;;;;;5051118;28;20180;-73
2021/10/09 03:34:32;;;;;;;7.97;5.03;;;7.10;99.90;;;;;;5069027;28;20192;-72
2021/10/09 03:37:00;;;;;;;11.10;5.18;;;7.10;99.90;;;;;;5069292;28;20172;-72
2021/10/09 03:39:26;;;;;;;10.80;4.45;;;7.10;99.90;;;;;;5051057;28;20169;-71
2021/10/09 03:41:57;;;;;;;8.32;5.18;;;7.10;99.90;;;;;;5069136;28;20250;-72
2021/10/09 03:44:24;;;;;;;9.57;5.22;;;7.00;99.90;;;;;;5068762;28;20642;-71
2021/10/09 03:47:01;;;;;;;8.18;4.70;;;7.00;99.90;;;;;;5050812;28;20169;-71
2021/10/09 03:49:47;;;;;;;9.50;4.82;;;6.90;99.90;;;;;;5069007;28;20571;-71
2021/10/09 03:55:00;;;;;;;9.77;4.85;;;6.90;99.90;;;;;;5051182;28;20749;-73
2021/10/09 03:57:25;;;;;;;6.95;4.03;;;6.80;99.90;;;;;;5031048;28;20169;-71
2021/10/09 03:59:51;;;;;;;7.53;4.95;;;6.80;99.90;;;;;;5030650;28;20203;-71
2021/10/09 04:02:17;;;;;;;15.00;5.60;;;6.80;99.90;;;;;;5043995;28;20617;-72
2021/10/09 04:04:44;;;;;;;9.40;5.80;;;6.80;99.90;;;;;;5068569;28;20252;-72
2021/10/09 04:07:10;;;;;;;7.32;4.57;;;6.80;99.90;;;;;;5068541;28;20621;-72
2021/10/09 04:09:35;;;;;;;7.20;4.43;;;6.80;99.90;;;;;;5050322;28;20218;-72
2021/10/09 04:12:01;;;;;;;5.97;4.03;;;6.80;99.90;;;;;;5068143;28;20195;-71
2021/10/09 04:14:27;;;;;;;9.48;4.70;;;6.80;99.90;;;;;;5049743;28;20219;-72
2021/10/09 04:16:53;;;;;;;11.38;4.57;;;6.90;99.90;;;;;;5067991;28;20157;-72
2021/10/09 04:19:19;;;;;;;10.35;4.63;;;6.90;99.90;;;;;;5067640;28;20153;-72
2021/10/09 04:21:45;;;;;;;8.38;5.18;;;6.80;99.90;;;;;;5050186;28;20173;-71
2021/10/09 04:24:11;;;;;;;6.45;4.45;;;6.80;99.90;;;;;;5068100;28;20174;-71
2021/10/09 04:26:37;;;;;;;11.20;6.10;;;6.80;99.90;;;;;;5068024;28;20276;-71
2021/10/09 04:29:03;;;;;;;8.38;4.60;;;6.70;99.90;;;;;;5068021;28;20157;-71
2021/10/09 04:31:28;;;;;;;8.57;4.85;;;6.70;99.90;;;;;;5068043;28;20220;-71
2021/10/09 04:33:54;;;;;;;8.50;5.00;;;6.60;99.90;;;;;;5067782;28;20252;-71
2021/10/09 04:36:20;;;;;;;7.63;4.07;;;6.60;99.90;;;;;;5049728;28;20255;-71
2021/10/09 04:38:46;;;;;;;7.65;4.32;;;6.60;99.90;;;;;;5068191;28;20161;-73
2021/10/09 04:41:12;;;;;;;16.35;5.32;;;6.70;99.90;;;;;;5068166;28;20220;-72
2021/10/09 04:43:38;;;;;;;13.90;4.47;;;6.70;99.90;;;;;;5068159;28;20184;-71
2021/10/09 04:46:04;;;;;;;6.60;4.60;;;6.60;99.90;;;;;;5049791;28;20517;-72
2021/10/09 04:48:29;;;;;;;8.13;4.22;;;6.30;99.90;;;;;;5067953;28;20626;-70
2021/10/09 04:50:55;;;;;;;7.47;4.97;;;6.30;99.90;;;;;;5067809;28;20191;-72
2021/10/09 04:53:21;;;;;;;7.78;4.53;;;6.20;99.90;;;;;;5067579;28;20223;-72
2021/10/09 04:55:47;;;;;;;11.82;4.97;;;6.10;99.90;;;;;;5067590;28;20238;-72
2021/10/09 04:58:13;;;;;;;10.18;5.28;;;6.10;99.90;;;;;;5067628;28;20157;-71
2021/10/09 05:00:39;;;;;;;8.63;5.00;;;6.10;99.90;;;;;;5067663;28;20230;-72
2021/10/09 05:03:05;;;;;;;7.57;4.75;;;6.10;99.90;;;;;;5067685;28;20188;-72
2021/10/09 05:05:31;;;;;;;7.32;5.18;;;6.10;99.90;;;;;;5067624;28;20184;-71
2021/10/09 05:07:57;;;;;;;7.50;4.65;;;6.10;99.90;;;;;;5049459;28;20231;-71
2021/10/09 05:10:28;;;;;;;6.35;4.53;;;6.20;99.90;;;;;;5049577;28;20168;-71
2021/10/09 05:12:54;;;;;;;7.72;5.18;;;6.20;99.90;;;;;;5067452;28;20191;-71
2021/10/09 05:15:20;;;;;;;7.68;4.45;;;6.20;99.90;;;;;;5067341;28;20185;-71
2021/10/09 05:17:46;;;;;;;5.53;3.90;;;6.10;99.90;;;;;;5049507;28;20171;-71
2021/10/09 05:20:12;;;;;;;10.38;4.97;;;6.30;99.90;;;;;;5067430;28;20253;-70
2021/10/09 05:22:38;;;;;;;14.25;4.70;;;6.20;99.90;;;;;;5067473;28;20165;-71
2021/10/09 05:25:05;;;;;;;9.57;4.63;;;6.20;99.90;;;;;;5067429;28;20196;-71
2021/10/09 05:27:34;;;;;;;4.95;4.20;;;6.20;99.90;;;;;;5049245;28;20181;-71
2021/10/09 05:30:06;;;;;;;8.55;4.38;;;6.30;99.90;;;;;;5069379;28;20156;-72
2021/10/09 05:32:32;;;;;;;7.88;4.43;;;6.20;99.90;;;;;;5071281;28;20211;-71
2021/10/09 05:34:58;;;;;;;9.13;5.50;;;6.30;99.90;;;;;;5071229;28;20188;-71
2021/10/09 05:37:25;;;;;;;8.27;4.85;;;6.40;99.90;;;;;;5071374;28;20242;-72
2021/10/09 05:39:51;;;;;;;10.30;5.32;;;6.50;99.90;;;;;;5071299;28;20180;-71
2021/10/09 05:42:17;;;;;;;9.27;5.10;;;6.50;99.90;;;;;;5071303;28;20172;-71
2021/10/09 05:44:42;;;;;;;6.78;4.15;;;6.50;99.90;;;;;;5053021;28;20207;-71
2021/10/09 05:47:08;;;;;;;7.07;5.05;;;6.50;99.90;;;;;;5053082;28;20183;-72
2021/10/09 05:49:36;;;;;;;7.82;4.50;;;6.60;99.90;;;;;;5070983;28;20225;-71
2021/10/09 05:52:14;;;;;;;7.25;5.35;;;6.70;99.90;;;;;;5070859;28;20244;-72
2021/10/09 05:55:08;;;;;;;11.45;4.72;;;6.70;99.90;;;;;;5070984;28;20199;-72
2021/10/09 06:00:28;;;;;;;7.25;4.93;;;6.70;99.90;;;;;;5070813;28;20156;-72
2021/10/09 07:00:11;;;;;;;8.57;5.63;;;9.30;99.90;;;;;;5069601;28;20167;-71
2021/10/09 07:02:39;;;;;;;8.68;5.90;;;9.60;99.90;;;;;;5069890;28;20153;-72
2021/10/09 07:05:06;;;;;;;8.88;6.47;;;9.70;99.90;;;;;;5069418;28;20207;-72
2021/10/09 07:07:36;;;;;;;10.20;6.15;;;9.70;99.90;;;;;;5069561;28;20161;-73
2021/10/09 07:10:03;;;;;;;9.82;5.80;;;9.80;99.90;;;;;;5069460;28;20168;-72
2021/10/09 07:12:29;;;;;;;9.10;5.28;;;9.90;99.90;;;;;;5069326;28;20240;-71
2021/10/09 07:14:55;;;;;;;11.02;6.80;;;10.10;99.90;;;;;;5069286;28;20560;-72
2021/10/09 07:17:21;;;;;;;11.15;7.22;;;10.20;99.90;;;;;;5066939;28;20216;-70
2021/10/09 07:19:46;;;;;;;8.32;6.13;;;10.30;99.90;;;;;;5029880;28;20185;-70
2021/10/09 07:22:12;;;;;;;9.32;6.15;;;10.40;99.90;;;;;;5049292;28;20531;-73
2021/10/09 07:24:38;;;;;;;17.67;6.63;;;10.60;99.90;;;;;;5046404;28;20256;-71
2021/10/09 07:27:04;;;;;;;8.88;5.88;;;10.80;99.90;;;;;;5049226;28;20564;-71
2021/10/09 07:29:30;;;;;;;11.00;7.20;;;10.90;99.90;;;;;;5031044;28;20264;-71
2021/10/09 07:31:56;;;;;;;11.30;5.82;;;11.20;99.90;;;;;;5048908;28;20161;-71
2021/10/09 07:34:22;;;;;;;10.60;6.38;;;11.70;99.90;;;;;;5030887;28;20245;-71
2021/10/09 07:36:48;;;;;;;9.48;5.97;;;12.20;99.90;;;;;;5030963;28;20571;-71
2021/10/09 07:39:14;;;;;;;8.85;6.15;;;13.00;99.90;;;;;;5048809;28;20165;-71
2021/10/09 07:41:40;;;;;;;9.32;6.38;;;13.40;99.90;;;;;;5047499;28;20158;-72
2021/10/09 07:44:06;;;;;;;10.07;6.40;;;13.50;99.90;;;;;;5048876;28;20179;-71
2021/10/09 07:46:32;;;;;;;8.40;5.20;;;13.90;99.90;;;;;;5048812;28;20225;-73
2021/10/09 07:48:58;;;;;;;7.97;5.20;;;14.00;99.90;;;;;;5048770;28;20158;-71
2021/10/09 07:51:24;;;;;;;6.50;5.20;;;14.70;99.90;;;;;;5048546;28;20274;-72
2021/10/09 07:53:50;;;;;;;10.05;6.32;;;15.70;99.90;;;;;;5047560;28;20197;-72
2021/10/09 07:56:16;;;;;;;11.07;5.28;;;16.40;99.90;;;;;;5048214;28;20193;-72
2021/10/09 07:58:42;;;;;;;11.40;5.47;;;17.40;99.90;;;;;;5030547;28;20169;-72
2021/10/09 08:01:09;;;;;;;8.40;5.50;;;18.00;99.90;;;;;;5041901;28;20176;-72
2021/10/09 08:03:34;;;;;;;6.53;5.18;;;17.90;99.90;;;;;;5029979;28;21032;-71
2021/10/09 08:06:00;;;;;;;9.90;4.97;;;18.30;99.90;;;;;;5048309;28;20184;-72
2021/10/09 08:08:26;;;;;;;6.28;4.57;;;18.50;99.90;;;;;;5048380;28;20180;-72
2021/10/09 08:10:53;;;;;;;10.73;4.68;;;18.80;99.90;;;;;;5048375;28;20157;-71
2021/10/09 08:13:19;;;;;;;9.13;5.22;;;18.80;99.90;;;;;;5047460;28;20200;-71
2021/10/09 08:15:46;;;;;;;6.45;4.30;;;18.80;99.90;;;;;;5030083;28;20597;-70
2021/10/09 08:18:13;;;;;;;8.65;5.40;;;18.20;99.90;;;;;;5048160;28;20559;-72
2021/10/09 08:20:41;;;;;;;8.32;5.55;;;17.70;99.90;;;;;;5047946;28;20180;-72
2021/10/09 08:23:12;;;;;;;7.47;5.15;;;16.90;99.90;;;;;;5047450;28;20168;-71
2021/10/09 08:36:38;;;;;;;15.88;5.55;;;16.70;99.90;;;;;;5047454;28;20231;-71
2021/10/09 08:39:06;;;;;;;9.70;4.93;;;17.20;99.90;;;;;;5029853;28;20175;-71
2021/10/09 08:41:32;;;;;;;6.10;4.32;;;17.30;99.90;;;;;;5047693;28;20153;-72
2021/10/09 08:43:58;;;;;;;9.93;5.50;;;17.50;99.90;;;;;;5047141;28;20559;-72
2021/10/09 08:46:24;;;;;;;8.85;4.70;;;16.00;99.90;;;;;;5046678;28;20212;-71
2021/10/09 08:48:51;;;;;;;9.85;5.20;;;15.40;99.90;;;;;;5043030;28;20203;-71
2021/10/09 08:51:26;;;;;;;7.78;4.40;;;16.40;99.90;;;;;;5028183;28;20203;-72
2021/10/09 08:53:54;;;;;;;11.00;5.15;;;17.60;99.90;;;;;;5029163;28;20204;-69
2021/10/09 08:56:31;;;;;;;13.93;5.00;;;17.40;99.90;;;;;;5047479;28;20184;-71
2021/10/09 08:59:11;;;;;;;7.82;4.68;;;15.70;99.90;;;;;;5046569;28;20185;-71
2021/10/09 09:01:52;;;;;;;10.93;4.57;;;15.80;99.90;;;;;;5047251;28;20160;-72
2021/10/09 09:38:54;;;;;;;9.45;5.28;;;16.90;99.90;;;;;;5008573;28;20190;-70
2021/10/09 09:40:17;;;;;;;7.03;4.40;;;16.90;99.90;;;;;;5024129;28;20189;-70
2021/10/09 09:42:48;;;;;;;9.20;5.57;;;17.20;99.90;;;;;;5027324;28;20163;-70
2021/10/09 09:45:22;;;;;;;7.10;4.55;;;17.50;99.90;;;;;;5028541;28;20189;-69
2021/10/09 09:47:49;;;;;;;8.20;5.03;;;18.50;99.90;;;;;;5047348;28;20165;-69
2021/10/09 09:50:15;;;;;;;6.88;4.85;;;18.40;99.90;;;;;;5047048;28;20220;-70
2021/10/09 09:52:43;;;;;;;7.43;4.30;;;17.30;99.90;;;;;;5046947;28;20239;-69
2021/10/09 09:55:14;;;;;;;6.20;4.47;;;15.90;99.90;;;;;;5047182;28;20704;-69
2021/10/09 09:57:41;;;;;;;7.57;4.20;;;15.60;99.90;;;;;;5047425;28;20162;-70
2021/10/09 10:00:08;;;;;;;8.73;4.10;;;15.40;99.90;;;;;;5047065;28;20153;-69
2021/10/09 10:02:47;;;;;;;15.27;4.65;;;14.60;99.90;;;;;;5044523;28;20178;-69
2021/10/09 10:05:13;;;;;;;5.07;3.97;;;14.30;99.90;;;;;;5009752;28;20205;-69
2021/10/09 10:07:40;;;;;;;11.80;4.18;;;14.50;99.90;;;;;;5027303;28;20162;-71
2021/10/09 10:10:08;;;;;;;10.23;3.90;;;13.80;99.90;;;;;;5027061;28;20166;-69
2021/10/09 10:12:35;;;;;;;6.30;3.55;;;13.70;99.90;;;;;;5009349;28;20206;-69
2021/10/09 10:15:03;;;;;;;6.40;3.95;;;13.70;99.90;;;;;;5027164;28;20185;-70
2021/10/09 10:17:48;;;;;;;9.23;4.03;;;13.70;99.90;;;;;;5032911;28;20273;-68
2021/10/09 10:20:44;;;;;;;8.35;3.67;;;13.70;99.90;;;;;;5050417;28;20180;-70
2021/10/09 10:23:09;;;;;;;6.55;3.35;;;13.70;99.90;;;;;;5050183;28;20198;-69
2021/10/09 10:25:37;;;;;;;5.53;3.78;;;13.80;99.90;;;;;;5050390;28;20688;-69
2021/10/09 10:28:13;;;;;;;6.30;3.90;;;14.00;99.90;;;;;;5032260;28;20196;-70
2021/10/09 10:30:42;;;;;;;7.75;4.40;;;14.00;99.90;;;;;;5045012;28;20187;-72
2021/10/09 10:33:10;;;;;;;8.98;3.60;;;14.10;99.90;;;;;;5050109;28;20227;-69
2021/10/09 10:35:36;;;;;;;7.90;3.58;;;14.20;99.90;;;;;;5032077;28;20197;-68
2021/10/09 10:38:06;;;;;;;8.68;3.40;;;14.20;99.90;;;;;;5045658;28;20179;-69
2021/10/09 10:40:59;;;;;;;8.65;3.25;;;14.20;99.90;;;;;;5052109;28;20165;-69
2021/10/09 10:46:32;;;;;;;8.15;3.20;;;14.10;99.90;;;;;;5070209;28;20195;-68
2021/10/09 10:49:21;;;;;;;6.03;3.03;;;14.20;99.90;;;;;;5069920;28;20196;-72
2021/10/09 10:51:54;;;;;;;7.05;4.38;;;14.00;99.90;;;;;;5061499;28;20262;-70
2021/10/09 10:56:59;;;;;;;8.27;3.00;;;13.50;99.90;;;;;;5089938;28;20235;-70
2021/10/09 10:59:55;;;;;;;7.43;2.92;;;13.40;99.90;;;;;;5089862;28;20166;-70
2021/10/09 11:02:39;;;;;;;7.00;3.35;;;13.20;99.90;;;;;;5090033;28;20198;-70
2021/10/09 11:05:15;;;;;;;5.38;3.03;;;13.80;99.90;;;;;;5088520;28;20190;-70
2021/10/09 11:07:44;;;;;;;6.63;2.92;;;14.80;99.90;;;;;;5075676;28;20171;-71
2021/10/09 11:10:17;;;;;;;3.53;2.90;;;14.80;99.90;;;;;;5069664;28;20164;-69
2021/10/09 11:12:48;;;;;;;6.18;3.15;;;14.50;99.90;;;;;;5069600;28;20196;-69
2021/10/09 11:15:36;;;;;;;8.32;3.03;;;14.40;99.90;;;;;;5069443;28;20174;-69
2021/10/09 11:18:03;;;;;;;5.30;3.08;;;14.20;99.90;;;;;;5069156;28;20240;-70
2021/10/09 11:20:37;;;;;;;7.38;3.00;;;14.30;99.90;;;;;;5068728;28;20211;-71
2021/10/09 11:23:09;;;;;;;9.00;2.88;;;14.60;99.90;;;;;;5067353;28;20200;-69
2021/10/09 11:25:42;;;;;;;4.30;3.03;;;15.00;99.90;;;;;;5067055;28;20177;-69
2021/10/09 11:28:19;;;;;;;5.45;3.55;;;14.70;99.90;;;;;;5053957;28;20721;-69
2021/10/09 11:30:45;;;;;;;7.05;2.90;;;14.60;99.90;;;;;;5069122;28;20195;-69
2021/10/09 11:33:12;;;;;;;8.43;2.75;;;14.70;99.90;;;;;;5068330;28;20196;-70
2021/10/09 11:35:40;;;;;;;5.72;3.28;;;14.50;99.90;;;;;;5068483;28;20172;-69
2021/10/09 11:38:19;;;;;;;7.55;2.55;;;14.30;99.90;;;;;;5083752;28;20205;-69
2021/10/09 11:40:57;;;;;;;5.45;2.65;;;14.00;99.40;;;;;;5089375;28;20157;-69
2021/10/09 11:55:19;;;;;;;3.42;2.53;;;14.50;99.80;;;;;;4987800;28;20202;-69
2021/10/09 11:57:45;;;;;;;3.83;2.67;;;15.00;99.80;;;;;;4988242;28;20217;-70
2021/10/09 12:00:33;;;;;;;7.03;2.97;;;15.80;99.50;;;;;;4990866;28;20175;-69
2021/10/09 12:03:21;;;;;;;13.27;2.90;;;16.30;99.40;;;;;;5007252;28;20188;-69
2021/10/09 12:05:54;;;;;;;8.65;2.88;;;16.50;96.40;;;;;;5006940;28;20237;-70
2021/10/09 12:08:25;;;;;;;11.48;3.65;;;16.30;96.70;;;;;;5006838;28;20206;-69
2021/10/09 12:11:12;;;;;;;6.32;2.65;;;16.60;99.90;;;;;;5007014;28;20201;-69
2021/10/09 12:13:49;;;;;;;6.97;2.75;;;16.50;97.50;;;;;;4990534;28;20197;-70
2021/10/09 12:16:17;;;;;;;4.88;2.90;;;15.80;99.90;;;;;;5008091;28;20163;-70
2021/10/09 12:18:46;;;;;;;4.53;2.00;;;15.60;99.50;;;;;;5068453;28;20184;-70
2021/10/09 12:21:14;;;;;;;6.40;3.00;;;14.90;97.60;;;;;;5068507;28;20168;-70
2021/10/09 12:23:40;;;;;;;5.20;2.90;;;14.70;99.10;;;;;;5068443;28;20187;-73
2021/10/09 12:26:18;;;;;;;8.13;2.83;;;14.60;99.20;;;;;;5068417;28;20181;-73
2021/10/09 12:29:03;;;;;;;4.75;2.70;;;14.50;99.00;;;;;;5068378;28;20184;-71
2021/10/09 12:31:31;;;;;;;6.18;3.05;;;14.30;98.20;;;;;;5066858;28;20160;-72
2021/10/09 12:33:57;;;;;;;4.88;2.70;;;14.20;99.30;;;;;;5068227;28;20200;-71
2021/10/09 12:39:22;;;;;;;8.75;3.45;;;14.00;99.90;;;;;;5087352;28;20187;-70
2021/10/09 12:41:54;;;;;;;8.10;2.83;;;13.80;99.60;;;;;;5086954;28;20168;-70
2021/10/09 12:44:21;;;;;;;5.35;3.33;;;13.80;99.30;;;;;;5086292;28;20209;-70
2021/10/09 12:46:48;;;;;;;3.88;2.97;;;13.70;99.90;;;;;;5087663;28;20197;-70
2021/10/09 12:49:14;;;;;;;6.88;3.17;;;13.80;99.20;;;;;;5087695;28;20192;-70
2021/10/09 12:51:40;;;;;;;5.60;2.67;;;13.70;99.90;;;;;;5081889;28;20208;-71
2021/10/09 12:54:07;;;;;;;9.18;3.05;;;13.70;99.90;;;;;;5049524;28;20196;-70
2021/10/09 12:56:35;;;;;;;4.75;3.22;;;13.90;99.90;;;;;;5049146;28;20177;-71
2021/10/09 12:59:01;;;;;;;11.75;3.42;;;14.00;99.90;;;;;;5029588;28;20197;-70
2021/10/09 13:01:28;;;;;;;6.93;3.00;;;14.00;99.90;;;;;;5047461;28;20158;-68
2021/10/09 13:03:54;;;;;;;7.78;2.72;;;13.90;99.90;;;;;;5047494;28;20157;-68
2021/10/09 13:06:20;;;;;;;5.82;3.33;;;13.80;99.90;;;;;;5046390;28;20244;-69
2021/10/09 13:08:46;;;;;;;5.72;3.10;;;13.70;99.90;;;;;;5047542;28;20177;-69
2021/10/09 13:11:12;;;;;;;5.50;2.88;;;13.70;99.90;;;;;;5029312;28;20177;-68
2021/10/09 13:13:39;;;;;;;5.90;3.00;;;13.70;99.90;;;;;;5029767;28;20197;-70
2021/10/09 13:16:08;;;;;;;6.95;3.35;;;13.60;99.90;;;;;;5047348;28;20189;-71
2021/10/09 13:18:34;;;;;;;11.25;3.30;;;13.70;99.90;;;;;;5047448;28;20176;-70
2021/10/09 13:21:03;;;;;;;4.80;3.10;;;13.80;99.80;;;;;;5047295;28;20169;-71
2021/10/09 13:23:31;;;;;;;8.82;3.05;;;13.70;99.30;;;;;;5046873;28;20193;-71
2021/10/09 13:26:01;;;;;;;4.45;3.05;;;13.70;99.90;;;;;;5029315;28;20641;-71
2021/10/09 13:28:27;;;;;;;4.35;2.45;;;13.70;99.40;;;;;;5047322;28;20225;-69
2021/10/09 13:30:54;;;;;;;3.83;2.47;;;13.60;99.20;;;;;;5047403;28;20614;-70
2021/10/09 13:33:20;;;;;;;5.45;2.70;;;13.50;99.90;;;;;;5018401;28;20213;-69
2021/10/09 13:35:46;;;;;;;5.50;2.38;;;13.50;99.40;;;;;;5027270;28;20222;-69
2021/10/09 13:38:14;;;;;;;2.15;1.95;;;13.30;99.90;;;;;;5057828;28;20165;-69
2021/10/09 13:40:41;;;;;;;4.63;2.85;;;13.20;99.90;;;;;;5066986;28;20169;-69
2021/10/09 13:43:12;;;;;;;10.02;2.88;;;13.10;99.90;;;;;;5067006;28;20238;-69
2021/10/09 13:45:43;;;;;;;4.45;2.85;;;13.10;99.90;;;;;;5049058;28;20177;-70
2021/10/09 13:48:09;;;;;;;6.10;3.22;;;13.10;99.90;;;;;;5067505;28;20165;-71
2021/10/09 13:50:39;;;;;;;11.00;3.55;;;13.10;99.80;;;;;;5049246;28;20670;-72
2021/10/09 13:53:06;;;;;;;3.75;3.00;;;13.10;99.90;;;;;;5052356;28;20251;-71
2021/10/09 13:55:32;;;;;;;7.85;2.97;;;13.20;99.90;;;;;;5070913;28;20209;-71
2021/10/09 13:57:58;;;;;;;6.18;2.55;;;13.20;99.90;;;;;;5052676;28;20196;-71
2021/10/09 14:00:24;;;;;;;4.93;2.65;;;13.20;99.20;;;;;;5070681;28;20206;-70
2021/10/09 14:02:49;;;;;;;5.65;2.67;;;13.10;99.90;;;;;;5052577;28;20611;-71
2021/10/09 14:05:15;;;;;;;4.60;2.63;;;13.00;99.90;;;;;;5052636;28;20209;-70
2021/10/09 14:07:41;;;;;;;7.90;3.25;;;13.00;99.80;;;;;;5038690;28;20565;-70
2021/10/09 14:10:07;;;;;;;5.97;2.70;;;13.00;99.90;;;;;;5050564;28;20165;-70
2021/10/09 14:12:33;;;;;;;4.63;2.65;;;13.00;99.80;;;;;;5050295;28;20196;-70
2021/10/09 14:14:59;;;;;;;12.52;4.15;;;13.00;99.90;;;;;;5050600;28;20187;-70
2021/10/09 14:17:28;;;;;;;9.10;3.38;;;13.00;99.90;;;;;;5050888;28;20198;-70
2021/10/09 14:19:54;;;;;;;5.70;3.10;;;12.90;99.90;;;;;;5032375;28;20177;-70
2021/10/09 14:22:24;;;;;;;4.82;2.97;;;12.90;99.90;;;;;;5050430;28;20180;-70
2021/10/09 14:24:50;;;;;;;6.18;3.50;;;13.10;99.90;;;;;;5050289;28;20190;-70
2021/10/09 14:27:16;;;;;;;7.53;3.00;;;13.00;99.90;;;;;;5032594;28;20192;-70
2021/10/09 14:29:42;;;;;;;6.38;3.38;;;13.00;99.90;;;;;;5050175;28;20217;-70
2021/10/09 14:32:08;;;;;;;11.27;3.75;;;13.00;99.90;;;;;;5050291;28;20157;-70
2021/10/09 14:34:34;;;;;;;7.78;3.28;;;13.00;99.90;;;;;;5050054;28;20221;-70
2021/10/09 14:37:00;;;;;;;8.60;3.10;;;13.00;99.90;;;;;;5037380;28;20237;-70
2021/10/09 14:39:27;;;;;;;12.43;3.35;;;13.10;99.90;;;;;;5052059;28;20175;-70
2021/10/09 14:41:53;;;;;;;6.47;3.22;;;13.00;99.90;;;;;;5069919;28;20179;-70
2021/10/09 14:44:19;;;;;;;5.40;2.78;;;13.00;99.90;;;;;;5069941;28;20196;-71
2021/10/09 14:49:30;;;;;;;5.25;2.58;;;12.80;99.90;;;;;;5070250;28;20159;-71
2021/10/09 14:52:26;;;;;;;10.50;3.58;;;12.80;99.90;;;;;;5069753;28;20227;-75
2021/10/09 14:55:22;;;;;;;5.13;3.15;;;12.80;99.90;;;;;;5069297;28;20800;-76
2021/10/09 15:19:10;;;;;;;6.15;3.00;;;12.40;99.90;;;;;;5040465;28;20185;-75
2021/10/09 15:21:36;;;;;;;6.47;3.63;;;12.40;99.90;;;;;;5049655;28;20158;-75
2021/10/09 15:24:02;;;;;;;6.60;3.35;;;12.30;99.90;;;;;;5049502;28;20217;-74
2021/10/09 15:26:28;;;;;;;6.93;3.10;;;12.20;99.90;;;;;;5031588;28;20236;-74
2021/10/09 15:28:54;;;;;;;4.78;3.30;;;12.20;99.90;;;;;;5049299;28;20203;-73
2021/10/09 15:31:20;;;;;;;8.90;4.00;;;12.10;99.90;;;;;;5049461;28;20158;-74
2021/10/09 15:33:46;;;;;;;3.75;2.90;;;12.10;99.90;;;;;;5031135;28;20216;-73